createdAt,value
2019-01-24T00:00:09.708Z,-5.88
2019-01-24T00:05:19.652Z,-5.78
2019-01-24T00:10:25.320Z,-5.63
2019-01-24T00:15:32.429Z,-5.72
2019-01-24T00:20:38.073Z,-5.82
2019-01-24T00:25:43.709Z,-5.74
2019-01-24T00:30:49.355Z,-5.70
2019-01-24T00:35:54.963Z,-5.73
2019-01-24T00:41:01.135Z,-5.98
2019-01-24T00:46:07.993Z,-6.32
2019-01-24T00:51:13.612Z,-6.15
2019-01-24T00:56:19.406Z,-5.89
2019-01-24T01:01:25.065Z,-5.82
2019-01-24T01:06:30.727Z,-5.72
2019-01-24T01:11:36.637Z,-5.82
2019-01-24T01:16:42.284Z,-5.80
2019-01-24T01:21:47.929Z,-5.85
2019-01-24T01:26:53.545Z,-5.85
2019-01-24T01:31:59.188Z,-5.94
2019-01-24T01:37:05.207Z,-5.82
2019-01-24T01:42:11.602Z,-5.85
2019-01-24T01:47:17.842Z,-5.82
2019-01-24T01:52:23.467Z,-5.65
2019-01-24T01:57:29.150Z,-5.65
2019-01-24T02:02:34.983Z,-5.65
2019-01-24T02:07:40.678Z,-5.63
2019-01-24T02:12:47.195Z,-5.46
2019-01-24T02:17:53.563Z,-5.51
2019-01-24T02:22:59.158Z,-5.70
2019-01-24T02:28:07.057Z,-5.73
2019-01-24T02:33:14.634Z,-5.51
2019-01-24T02:38:20.201Z,-5.39
2019-01-24T02:43:26.364Z,-5.46
2019-01-24T02:48:31.979Z,-5.40
2019-01-24T02:53:37.556Z,-5.63
2019-01-24T02:58:43.173Z,-5.54
2019-01-24T03:03:48.845Z,-5.25
2019-01-24T03:08:54.479Z,-5.35
2019-01-24T03:14:01.085Z,-5.50
2019-01-24T03:19:06.799Z,-5.30
2019-01-24T03:24:15.523Z,-5.34
2019-01-24T03:29:21.129Z,-5.31
2019-01-24T03:34:27.228Z,-5.87
2019-01-24T03:39:33.290Z,-5.51
2019-01-24T03:44:38.992Z,-5.30
2019-01-24T03:49:44.612Z,-5.15
2019-01-24T03:54:50.220Z,-4.96
2019-01-24T03:59:56.215Z,-5.11
2019-01-24T04:05:03.465Z,-5.04
2019-01-24T04:10:11.594Z,-5.09
2019-01-24T04:15:22.965Z,-5.06
2019-01-24T04:20:28.624Z,-5.13
2019-01-24T04:25:34.291Z,-5.04
2019-01-24T04:30:39.920Z,-4.90
2019-01-24T04:35:45.567Z,-4.81
2019-01-24T04:40:51.337Z,-5.02
2019-01-24T04:45:59.643Z,-4.81
2019-01-24T04:51:06.414Z,-4.69
2019-01-24T04:56:12.050Z,-4.61
2019-01-24T05:01:17.672Z,-4.73
2019-01-24T05:06:23.319Z,-4.63
2019-01-24T05:11:29.007Z,-4.69
2019-01-24T05:16:34.632Z,-4.54
2019-01-24T05:21:39.723Z,-4.70
2019-01-24T05:26:45.308Z,-4.47
2019-01-24T05:31:50.947Z,-5.03
2019-01-24T05:36:56.559Z,-4.72
2019-01-24T05:42:02.196Z,-4.41
2019-01-24T05:47:10.687Z,-4.56
2019-01-24T05:52:19.767Z,-4.48
2019-01-24T05:57:23.693Z,-4.30
2019-01-24T06:02:29.383Z,-4.23
2019-01-24T06:12:39.573Z,-4.31
2019-01-24T06:17:45.178Z,-4.09
2019-01-24T06:22:50.925Z,-4.18
2019-01-24T06:27:57.008Z,-4.18
2019-01-24T06:33:04.619Z,-4.26
2019-01-24T06:38:10.709Z,-4.24
2019-01-24T06:43:17.299Z,-3.97
2019-01-24T06:48:26.299Z,-4.21
2019-01-24T06:53:31.881Z,-4.11
2019-01-24T06:58:37.485Z,-4.12
2019-01-24T07:03:44.112Z,-3.95
2019-01-24T07:08:49.703Z,-4.17
2019-01-24T07:13:56.086Z,-3.94
2019-01-24T07:19:01.938Z,-3.93
2019-01-24T07:24:07.626Z,-3.87
2019-01-24T07:29:13.212Z,-3.94
2019-01-24T07:34:18.822Z,-3.71
2019-01-24T07:39:24.609Z,-3.60
2019-01-24T07:44:31.287Z,-3.60
2019-01-24T07:49:36.863Z,-3.57
2019-01-24T07:54:44.396Z,-3.63
2019-01-24T07:59:50.028Z,-4.26
2019-01-24T08:04:55.644Z,-4.19
2019-01-24T08:10:01.255Z,-4.12
2019-01-24T08:15:08.587Z,-3.89
2019-01-24T08:20:18.985Z,-3.60
2019-01-24T08:25:24.701Z,-3.17
2019-01-24T08:30:33.115Z,-3.78
2019-01-24T08:35:39.397Z,-3.86
2019-01-24T08:40:45.742Z,-3.84
2019-01-24T08:45:52.046Z,-4.01
2019-01-24T08:50:57.696Z,-3.81
2019-01-24T08:56:04.515Z,-3.50
2019-01-24T09:01:10.210Z,-3.94
2019-01-24T09:06:22.397Z,-3.55
2019-01-24T09:11:23.558Z,-3.25
2019-01-24T09:16:29.707Z,-3.30
2019-01-24T09:21:35.316Z,-3.25
2019-01-24T09:26:40.965Z,-3.06
2019-01-24T09:31:46.583Z,-2.96
2019-01-24T09:36:52.735Z,-3.19
2019-01-24T09:41:58.428Z,-3.35
2019-01-24T09:47:04.554Z,-3.35
2019-01-24T09:52:10.159Z,-3.04
2019-01-24T09:57:15.749Z,-3.24
2019-01-24T10:02:21.349Z,-3.49
2019-01-24T10:07:27.006Z,-3.39
2019-01-24T10:12:32.604Z,-3.27
2019-01-24T10:17:38.475Z,-3.10
2019-01-24T10:22:44.227Z,-2.95
2019-01-24T10:27:49.947Z,-2.68
2019-01-24T10:32:56.208Z,-2.82
2019-01-24T10:38:02.020Z,-3.10
2019-01-24T10:43:09.844Z,-2.86
2019-01-24T10:48:16.220Z,-2.37
2019-01-24T10:53:21.848Z,-2.08
2019-01-24T10:58:29.487Z,-2.44
2019-01-24T11:03:35.148Z,-2.60
2019-01-24T11:08:41.207Z,-2.65
2019-01-24T11:13:47.326Z,-2.26
2019-01-24T11:18:54.261Z,-2.07
2019-01-24T11:24:00.234Z,-2.12
2019-01-24T11:29:06.567Z,-1.35
2019-01-24T11:34:12.509Z,-1.56
2019-01-24T11:39:19.663Z,-1.92
2019-01-24T11:44:25.443Z,-1.61
2019-01-24T11:49:31.526Z,-1.13
2019-01-24T11:54:37.816Z,-1.35
2019-01-24T11:59:43.419Z,-1.51
2019-01-24T12:04:49.151Z,-1.33
2019-01-24T12:09:54.755Z,-1.27
2019-01-24T12:15:00.967Z,-1.31
2019-01-24T12:20:10.173Z,-0.84
2019-01-24T12:25:16.014Z,-0.97
2019-01-24T12:30:32.681Z,-1.09
2019-01-24T12:35:38.337Z,-1.17
2019-01-24T12:40:43.940Z,-1.17
2019-01-24T12:45:51.593Z,-1.20
2019-01-24T12:50:57.388Z,-1.53
2019-01-24T12:56:04.140Z,-2.01
2019-01-24T13:01:09.699Z,-1.80
2019-01-24T13:06:15.613Z,-1.50
2019-01-24T13:11:21.234Z,-1.40
2019-01-24T13:16:27.125Z,-1.75
2019-01-24T13:21:32.777Z,-2.43
2019-01-24T13:26:38.418Z,-2.54
2019-01-24T13:31:44.022Z,-2.47
2019-01-24T13:36:49.646Z,-2.37
2019-01-24T13:41:55.891Z,-2.23
2019-01-24T13:47:01.802Z,-2.17
2019-01-24T13:52:08.578Z,-2.06
2019-01-24T13:57:15.877Z,-2.00
2019-01-24T14:02:22.653Z,-2.57
2019-01-24T14:07:32.945Z,-2.30
2019-01-24T14:12:35.567Z,-2.21
2019-01-24T14:17:41.346Z,-2.26
2019-01-24T14:22:47.101Z,-2.19
2019-01-24T14:27:52.768Z,-2.11
2019-01-24T14:32:58.935Z,-2.21
2019-01-24T14:38:08.151Z,-2.73
2019-01-24T14:43:16.368Z,-2.28
2019-01-24T14:48:22.705Z,-2.18
2019-01-24T14:53:30.397Z,-2.15
2019-01-24T14:58:36.030Z,-1.89
2019-01-24T15:03:42.043Z,-2.27
2019-01-24T15:08:47.897Z,-2.10
2019-01-24T15:13:54.707Z,-2.53
2019-01-24T15:19:01.187Z,-2.57
2019-01-24T15:24:09.966Z,-2.21
2019-01-24T15:29:15.671Z,-2.33
2019-01-24T15:34:21.128Z,-2.45
2019-01-24T15:39:26.859Z,-2.31
2019-01-24T15:44:32.538Z,-2.46
2019-01-24T15:49:38.309Z,-2.31
2019-01-24T15:54:46.044Z,-2.42
2019-01-24T15:59:51.676Z,-2.44
2019-01-24T16:04:57.409Z,-2.51
2019-01-24T16:10:03.579Z,-2.46
2019-01-24T16:15:12.475Z,-2.37
2019-01-24T16:20:21.960Z,-2.54
2019-01-24T16:25:32.524Z,-2.67
2019-01-24T16:30:38.787Z,-2.67
2019-01-24T16:35:44.541Z,-2.84
2019-01-24T16:40:50.335Z,-2.88
2019-01-24T16:45:57.483Z,-2.65
2019-01-24T16:51:05.728Z,-2.74
2019-01-24T16:56:15.464Z,-2.89
2019-01-24T17:01:23.474Z,-2.91
2019-01-24T17:06:30.280Z,-2.90
2019-01-24T17:11:35.981Z,-2.99
2019-01-24T17:16:41.615Z,-2.98
2019-01-24T17:21:47.366Z,-3.08
2019-01-24T17:26:53.157Z,-2.95
2019-01-24T17:31:59.308Z,-2.90
2019-01-24T17:37:05.526Z,-3.12
2019-01-24T17:42:11.461Z,-2.93
2019-01-24T17:47:17.214Z,-3.33
2019-01-24T17:52:23.128Z,-3.04
2019-01-24T17:57:29.364Z,-2.52
2019-01-24T18:02:36.569Z,-2.93
2019-01-24T18:07:46.161Z,-2.89
2019-01-24T18:12:53.643Z,-2.84
2019-01-24T18:17:59.824Z,-2.78
2019-01-24T18:23:07.913Z,-2.72
2019-01-24T18:28:14.594Z,-2.96
2019-01-24T18:33:20.690Z,-2.63
2019-01-24T18:38:28.924Z,-3.08
2019-01-24T18:43:36.507Z,-2.96
2019-01-24T18:48:42.337Z,-2.62
2019-01-24T18:53:51.610Z,-2.79
2019-01-24T18:58:59.330Z,-2.77
2019-01-24T19:04:06.652Z,-2.67
2019-01-24T19:09:12.590Z,-2.54
2019-01-24T19:14:21.308Z,-3.08
2019-01-24T19:19:29.620Z,-2.76
2019-01-24T19:24:36.660Z,-2.61
2019-01-24T19:29:42.537Z,-2.43
2019-01-24T19:34:48.366Z,-2.64
2019-01-24T19:39:56.502Z,-2.62
2019-01-24T19:45:09.353Z,-2.52
2019-01-24T19:50:27.072Z,-2.41
2019-01-24T19:55:32.981Z,-2.63
2019-01-24T20:00:40.773Z,-2.38
2019-01-24T20:05:58.620Z,-2.66
2019-01-24T20:11:06.089Z,-2.60
2019-01-24T20:16:13.642Z,-2.65
2019-01-24T20:21:19.801Z,-2.81
2019-01-24T20:26:25.972Z,-2.57
2019-01-24T20:31:32.813Z,-2.30
2019-01-24T20:36:47.043Z,-2.82
2019-01-24T20:41:53.765Z,-2.53
2019-01-24T20:47:00.597Z,-2.92
2019-01-24T20:52:09.426Z,-2.56
2019-01-24T20:57:17.731Z,-2.95
2019-01-24T21:02:24.334Z,-2.66
2019-01-24T21:07:31.395Z,-2.71
2019-01-24T21:12:37.357Z,-3.39
2019-01-24T21:17:43.028Z,-2.79
2019-01-24T21:22:50.847Z,-2.85
2019-01-24T21:27:57.789Z,-3.37
2019-01-24T21:33:04.127Z,-3.59
2019-01-24T21:38:10.904Z,-3.28
2019-01-24T21:43:16.658Z,-3.10
2019-01-24T21:48:22.643Z,-3.42
2019-01-24T21:53:28.511Z,-3.31
2019-01-24T21:58:34.386Z,-3.46
2019-01-24T22:03:40.641Z,-3.76
2019-01-24T22:08:47.693Z,-3.82
2019-01-24T22:13:54.423Z,-3.50
2019-01-24T22:19:00.054Z,-3.33
2019-01-24T22:24:08.960Z,-3.19
2019-01-24T22:29:15.491Z,-3.21
2019-01-24T22:34:21.403Z,-3.86
2019-01-24T22:39:29.070Z,-3.51
2019-01-24T22:44:34.941Z,-3.93
2019-01-24T22:49:42.614Z,-3.25
2019-01-24T22:54:49.668Z,-3.74
2019-01-24T22:59:58.226Z,-3.37
2019-01-24T23:05:05.083Z,-3.60
2019-01-24T23:10:12.078Z,-3.26
2019-01-24T23:15:17.786Z,-3.28
2019-01-24T23:20:23.404Z,-2.92
2019-01-24T23:25:28.968Z,-3.18
2019-01-24T23:30:34.989Z,-3.49
2019-01-24T23:35:42.273Z,-3.51
2019-01-24T23:40:47.980Z,-3.67
2019-01-24T23:45:53.599Z,-3.64
2019-01-24T23:51:33.543Z,-3.50
2019-01-24T23:56:40.693Z,-3.48
